sensor_id;sensor_type;location;lat;lon;timestamp;temperature;humidity
36434;DHT22;31691;51.972;5.672;2022-07-05T00:04:54;22.30;82.70
36434;DHT22;31691;51.972;5.672;2022-07-05T00:09:57;21.90;84.50
36434;DHT22;31691;51.972;5.672;2022-07-05T00:15:00;21.80;84.50
36434;DHT22;31691;51.972;5.672;2022-07-05T00:20:03;21.90;84.00
36434;DHT22;31691;51.972;5.672;2022-07-05T00:25:06;21.80;84.10
36434;DHT22;31691;51.972;5.672;2022-07-05T00:30:09;21.80;84.20
36434;DHT22;31691;51.972;5.672;2022-07-05T00:35:12;21.70;84.10
36434;DHT22;31691;51.972;5.672;2022-07-05T00:40:14;21.80;83.90
36434;DHT22;31691;51.972;5.672;2022-07-05T00:45:16;21.70;84.20
36434;DHT22;31691;51.972;5.672;2022-07-05T00:50:19;21.60;84.40
36434;DHT22;31691;51.972;5.672;2022-07-05T00:55:21;21.50;84.90
36434;DHT22;31691;51.972;5.672;2022-07-05T01:00:24;21.50;85.10
36434;DHT22;31691;51.972;5.672;2022-07-05T01:05:27;21.20;86.10
36434;DHT22;31691;51.972;5.672;2022-07-05T01:10:30;21.30;85.70
36434;DHT22;31691;51.972;5.672;2022-07-05T01:15:33;21.20;85.70
36434;DHT22;31691;51.972;5.672;2022-07-05T01:20:36;21.20;85.80
36434;DHT22;31691;51.972;5.672;2022-07-05T01:25:38;21.20;85.90
36434;DHT22;31691;51.972;5.672;2022-07-05T01:30:42;21.10;86.10
36434;DHT22;31691;51.972;5.672;2022-07-05T01:35:44;21.10;86.10
36434;DHT22;31691;51.972;5.672;2022-07-05T01:40:47;21.00;87.60
36434;DHT22;31691;51.972;5.672;2022-07-05T01:45:54;20.90;87.80
36434;DHT22;31691;51.972;5.672;2022-07-05T01:51:05;21.00;86.60
36434;DHT22;31691;51.972;5.672;2022-07-05T01:56:09;20.80;87.30
36434;DHT22;31691;51.972;5.672;2022-07-05T02:01:12;20.70;87.40
36434;DHT22;31691;51.972;5.672;2022-07-05T02:06:15;20.80;86.90
36434;DHT22;31691;51.972;5.672;2022-07-05T02:11:17;20.40;89.30
36434;DHT22;31691;51.972;5.672;2022-07-05T02:16:23;19.90;90.40
36434;DHT22;31691;51.972;5.672;2022-07-05T02:21:25;20.10;90.00
36434;DHT22;31691;51.972;5.672;2022-07-05T02:26:27;20.30;89.30
36434;DHT22;31691;51.972;5.672;2022-07-05T02:31:30;20.40;89.00
36434;DHT22;31691;51.972;5.672;2022-07-05T02:36:33;20.60;88.40
36434;DHT22;31691;51.972;5.672;2022-07-05T02:41:35;20.70;88.40
36434;DHT22;31691;51.972;5.672;2022-07-05T02:46:37;19.80;91.60
36434;DHT22;31691;51.972;5.672;2022-07-05T02:51:40;20.00;91.00
36434;DHT22;31691;51.972;5.672;2022-07-05T02:56:42;20.60;89.40
36434;DHT22;31691;51.972;5.672;2022-07-05T03:01:47;20.90;88.20
36434;DHT22;31691;51.972;5.672;2022-07-05T03:06:49;21.10;87.70
36434;DHT22;31691;51.972;5.672;2022-07-05T03:11:53;21.20;86.80
36434;DHT22;31691;51.972;5.672;2022-07-05T03:16:55;21.30;87.50
36434;DHT22;31691;51.972;5.672;2022-07-05T03:21:58;21.20;87.10
36434;DHT22;31691;51.972;5.672;2022-07-05T03:27:00;21.30;86.90
36434;DHT22;31691;51.972;5.672;2022-07-05T03:32:03;21.30;87.80
36434;DHT22;31691;51.972;5.672;2022-07-05T03:37:05;21.20;88.90
36434;DHT22;31691;51.972;5.672;2022-07-05T03:42:07;21.10;88.50
36434;DHT22;31691;51.972;5.672;2022-07-05T03:47:10;20.80;90.50
36434;DHT22;31691;51.972;5.672;2022-07-05T03:52:12;21.20;87.90
36434;DHT22;31691;51.972;5.672;2022-07-05T03:57:14;21.50;86.50
36434;DHT22;31691;51.972;5.672;2022-07-05T04:02:16;21.70;85.40
36434;DHT22;31691;51.972;5.672;2022-07-05T04:07:19;21.90;86.90
36434;DHT22;31691;51.972;5.672;2022-07-05T04:12:21;21.80;88.10
36434;DHT22;31691;51.972;5.672;2022-07-05T04:17:23;22.10;85.50
36434;DHT22;31691;51.972;5.672;2022-07-05T04:22:25;22.30;84.20
36434;DHT22;31691;51.972;5.672;2022-07-05T04:27:28;22.40;84.50
36434;DHT22;31691;51.972;5.672;2022-07-05T04:32:30;22.60;86.30
36434;DHT22;31691;51.972;5.672;2022-07-05T04:37:32;22.80;84.30
36434;DHT22;31691;51.972;5.672;2022-07-05T04:42:34;23.00;84.30
36434;DHT22;31691;51.972;5.672;2022-07-05T04:47:37;23.20;85.30
36434;DHT22;31691;51.972;5.672;2022-07-05T04:52:39;23.40;87.30
36434;DHT22;31691;51.972;5.672;2022-07-05T04:57:41;23.60;88.70
36434;DHT22;31691;51.972;5.672;2022-07-05T05:02:44;23.80;89.10
36434;DHT22;31691;51.972;5.672;2022-07-05T05:07:46;23.90;88.50
36434;DHT22;31691;51.972;5.672;2022-07-05T05:12:48;24.00;87.80
36434;DHT22;31691;51.972;5.672;2022-07-05T05:17:51;24.20;89.10
36434;DHT22;31691;51.972;5.672;2022-07-05T05:22:53;24.30;88.80
36434;DHT22;31691;51.972;5.672;2022-07-05T05:27:55;24.50;88.50
36434;DHT22;31691;51.972;5.672;2022-07-05T05:32:57;24.50;88.40
36434;DHT22;31691;51.972;5.672;2022-07-05T05:37:59;24.70;89.30
36434;DHT22;31691;51.972;5.672;2022-07-05T05:43:01;25.00;88.80
36434;DHT22;31691;51.972;5.672;2022-07-05T05:48:03;25.40;87.80
36434;DHT22;31691;51.972;5.672;2022-07-05T05:53:06;25.60;86.70
36434;DHT22;31691;51.972;5.672;2022-07-05T05:58:13;25.60;87.10
36434;DHT22;31691;51.972;5.672;2022-07-05T06:03:17;26.20;86.80
36434;DHT22;31691;51.972;5.672;2022-07-05T06:08:19;26.70;87.30
36434;DHT22;31691;51.972;5.672;2022-07-05T06:13:22;27.60;85.30
36434;DHT22;31691;51.972;5.672;2022-07-05T06:18:24;28.80;83.10
36434;DHT22;31691;51.972;5.672;2022-07-05T06:23:27;29.20;80.30
36434;DHT22;31691;51.972;5.672;2022-07-05T06:28:29;29.80;79.60
36434;DHT22;31691;51.972;5.672;2022-07-05T06:33:32;30.70;78.10
36434;DHT22;31691;51.972;5.672;2022-07-05T06:38:35;31.60;74.90
36434;DHT22;31691;51.972;5.672;2022-07-05T06:43:37;32.20;72.70
36434;DHT22;31691;51.972;5.672;2022-07-05T06:48:39;32.70;70.40
36434;DHT22;31691;51.972;5.672;2022-07-05T06:53:41;32.80;69.30
36434;DHT22;31691;51.972;5.672;2022-07-05T06:58:44;32.70;70.30
36434;DHT22;31691;51.972;5.672;2022-07-05T07:03:46;32.90;70.00
36434;DHT22;31691;51.972;5.672;2022-07-05T07:09:09;33.20;68.20
36434;DHT22;31691;51.972;5.672;2022-07-05T07:14:26;33.00;67.90
36434;DHT22;31691;51.972;5.672;2022-07-05T07:19:28;32.60;68.10
36434;DHT22;31691;51.972;5.672;2022-07-05T07:24:31;32.30;69.00
36434;DHT22;31691;51.972;5.672;2022-07-05T07:29:35;32.00;69.60
36434;DHT22;31691;51.972;5.672;2022-07-05T07:34:38;31.50;68.80
36434;DHT22;31691;51.972;5.672;2022-07-05T07:39:40;31.40;69.50
36434;DHT22;31691;51.972;5.672;2022-07-05T07:44:43;31.20;70.60
36434;DHT22;31691;51.972;5.672;2022-07-05T07:49:46;31.20;68.90
36434;DHT22;31691;51.972;5.672;2022-07-05T07:54:48;31.10;68.30
36434;DHT22;31691;51.972;5.672;2022-07-05T07:59:51;31.10;70.10
36434;DHT22;31691;51.972;5.672;2022-07-05T08:04:53;31.30;69.70
36434;DHT22;31691;51.972;5.672;2022-07-05T08:09:57;31.10;68.20
36434;DHT22;31691;51.972;5.672;2022-07-05T08:14:59;30.90;70.40
36434;DHT22;31691;51.972;5.672;2022-07-05T08:20:02;30.60;69.80
36434;DHT22;31691;51.972;5.672;2022-07-05T08:25:24;30.50;69.70
36434;DHT22;31691;51.972;5.672;2022-07-05T08:30:27;30.80;70.30
36434;DHT22;31691;51.972;5.672;2022-07-05T08:35:29;31.30;67.90
36434;DHT22;31691;51.972;5.672;2022-07-05T08:40:33;31.10;69.00
36434;DHT22;31691;51.972;5.672;2022-07-05T08:45:39;30.80;69.10
36434;DHT22;31691;51.972;5.672;2022-07-05T08:50:44;30.70;67.60
36434;DHT22;31691;51.972;5.672;2022-07-05T08:55:48;30.60;69.60
36434;DHT22;31691;51.972;5.672;2022-07-05T09:00:50;30.70;69.10
36434;DHT22;31691;51.972;5.672;2022-07-05T09:05:52;30.50;68.90
36434;DHT22;31691;51.972;5.672;2022-07-05T09:10:59;30.30;68.70
36434;DHT22;31691;51.972;5.672;2022-07-05T09:16:01;30.00;70.60
36434;DHT22;31691;51.972;5.672;2022-07-05T09:21:20;30.30;68.60
36434;DHT22;31691;51.972;5.672;2022-07-05T09:31:45;30.50;70.40
36434;DHT22;31691;51.972;5.672;2022-07-05T09:36:58;31.20;69.40
36434;DHT22;31691;51.972;5.672;2022-07-05T09:42:18;30.70;69.40
36434;DHT22;31691;51.972;5.672;2022-07-05T09:47:30;30.20;72.50
36434;DHT22;31691;51.972;5.672;2022-07-05T09:52:35;30.30;73.00
36434;DHT22;31691;51.972;5.672;2022-07-05T09:57:39;30.30;73.40
36434;DHT22;31691;51.972;5.672;2022-07-05T10:07:55;30.10;72.50
36434;DHT22;31691;51.972;5.672;2022-07-05T10:13:00;30.10;72.90
36434;DHT22;31691;51.972;5.672;2022-07-05T10:18:05;30.90;72.30
36434;DHT22;31691;51.972;5.672;2022-07-05T10:23:12;30.60;67.70
36434;DHT22;31691;51.972;5.672;2022-07-05T10:28:16;30.20;67.40
36434;DHT22;31691;51.972;5.672;2022-07-05T10:33:20;30.20;68.50
36434;DHT22;31691;51.972;5.672;2022-07-05T10:38:27;30.10;66.20
36434;DHT22;31691;51.972;5.672;2022-07-05T10:43:30;30.20;65.40
36434;DHT22;31691;51.972;5.672;2022-07-05T10:48:32;29.90;64.70
36434;DHT22;31691;51.972;5.672;2022-07-05T10:58:47;29.90;66.20
36434;DHT22;31691;51.972;5.672;2022-07-05T11:09:18;30.10;65.00
36434;DHT22;31691;51.972;5.672;2022-07-05T11:19:32;29.90;62.80
36434;DHT22;31691;51.972;5.672;2022-07-05T11:24:37;29.40;64.30
36434;DHT22;31691;51.972;5.672;2022-07-05T11:34:52;29.60;63.40
36434;DHT22;31691;51.972;5.672;2022-07-05T11:45:22;29.60;62.30
36434;DHT22;31691;51.972;5.672;2022-07-05T11:50:27;29.60;62.90
36434;DHT22;31691;51.972;5.672;2022-07-05T11:55:30;29.60;62.40
36434;DHT22;31691;51.972;5.672;2022-07-05T12:00:34;29.60;63.70
36434;DHT22;31691;51.972;5.672;2022-07-05T12:05:38;29.40;63.30
36434;DHT22;31691;51.972;5.672;2022-07-05T12:10:47;29.10;63.00
36434;DHT22;31691;51.972;5.672;2022-07-05T12:16:17;28.90;63.40
36434;DHT22;31691;51.972;5.672;2022-07-05T12:21:20;28.70;63.80
36434;DHT22;31691;51.972;5.672;2022-07-05T12:26:23;29.30;64.30
36434;DHT22;31691;51.972;5.672;2022-07-05T12:31:25;28.90;65.80
36434;DHT22;31691;51.972;5.672;2022-07-05T12:36:27;29.10;67.20
36434;DHT22;31691;51.972;5.672;2022-07-05T12:41:30;29.60;65.90
36434;DHT22;31691;51.972;5.672;2022-07-05T12:46:36;29.90;64.80
36434;DHT22;31691;51.972;5.672;2022-07-05T12:51:45;29.40;65.20
36434;DHT22;31691;51.972;5.672;2022-07-05T12:56:50;28.80;64.60
36434;DHT22;31691;51.972;5.672;2022-07-05T13:02:45;28.20;66.10
36434;DHT22;31691;51.972;5.672;2022-07-05T13:07:48;27.80;67.10
36434;DHT22;31691;51.972;5.672;2022-07-05T13:12:54;28.10;66.80
36434;DHT22;31691;51.972;5.672;2022-07-05T13:17:57;28.00;66.50
36434;DHT22;31691;51.972;5.672;2022-07-05T13:22:59;28.10;67.60
36434;DHT22;31691;51.972;5.672;2022-07-05T13:28:02;28.30;66.30
36434;DHT22;31691;51.972;5.672;2022-07-05T13:33:04;28.30;65.50
36434;DHT22;31691;51.972;5.672;2022-07-05T13:38:06;28.30;64.80
36434;DHT22;31691;51.972;5.672;2022-07-05T13:43:08;28.50;64.60
36434;DHT22;31691;51.972;5.672;2022-07-05T13:48:10;28.70;63.30
36434;DHT22;31691;51.972;5.672;2022-07-05T13:53:12;29.00;64.10
36434;DHT22;31691;51.972;5.672;2022-07-05T13:58:18;29.50;61.20
36434;DHT22;31691;51.972;5.672;2022-07-05T14:03:20;29.80;61.40
36434;DHT22;31691;51.972;5.672;2022-07-05T14:08:22;29.80;60.50
36434;DHT22;31691;51.972;5.672;2022-07-05T14:13:25;28.80;60.50
36434;DHT22;31691;51.972;5.672;2022-07-05T14:18:28;28.50;62.50
36434;DHT22;31691;51.972;5.672;2022-07-05T14:23:30;29.10;61.10
36434;DHT22;31691;51.972;5.672;2022-07-05T14:28:33;29.30;62.20
36434;DHT22;31691;51.972;5.672;2022-07-05T14:33:35;29.40;59.90
36434;DHT22;31691;51.972;5.672;2022-07-05T14:38:39;28.70;62.30
36434;DHT22;31691;51.972;5.672;2022-07-05T14:43:41;28.90;61.90
36434;DHT22;31691;51.972;5.672;2022-07-05T14:48:43;29.20;59.60
36434;DHT22;31691;51.972;5.672;2022-07-05T14:53:45;29.90;60.10
36434;DHT22;31691;51.972;5.672;2022-07-05T14:58:49;29.70;58.80
36434;DHT22;31691;51.972;5.672;2022-07-05T15:03:51;29.60;59.40
36434;DHT22;31691;51.972;5.672;2022-07-05T15:08:54;29.70;58.30
36434;DHT22;31691;51.972;5.672;2022-07-05T15:14:00;29.50;58.00
36434;DHT22;31691;51.972;5.672;2022-07-05T15:19:04;28.80;59.60
36434;DHT22;31691;51.972;5.672;2022-07-05T15:24:07;28.50;60.70
36434;DHT22;31691;51.972;5.672;2022-07-05T15:29:18;28.60;60.30
36434;DHT22;31691;51.972;5.672;2022-07-05T15:34:21;28.50;59.50
36434;DHT22;31691;51.972;5.672;2022-07-05T15:39:23;28.30;59.80
36434;DHT22;31691;51.972;5.672;2022-07-05T15:44:26;27.70;62.10
36434;DHT22;31691;51.972;5.672;2022-07-05T15:49:29;28.00;63.40
36434;DHT22;31691;51.972;5.672;2022-07-05T15:54:33;28.30;60.90
36434;DHT22;31691;51.972;5.672;2022-07-05T15:59:35;28.00;61.70
36434;DHT22;31691;51.972;5.672;2022-07-05T16:04:38;27.50;65.20
36434;DHT22;31691;51.972;5.672;2022-07-05T16:09:40;27.70;63.60
36434;DHT22;31691;51.972;5.672;2022-07-05T16:14:42;28.10;60.80
36434;DHT22;31691;51.972;5.672;2022-07-05T16:19:44;27.80;61.60
36434;DHT22;31691;51.972;5.672;2022-07-05T16:24:47;27.90;63.80
36434;DHT22;31691;51.972;5.672;2022-07-05T16:29:49;28.30;62.60
36434;DHT22;31691;51.972;5.672;2022-07-05T16:34:51;28.60;61.90
36434;DHT22;31691;51.972;5.672;2022-07-05T16:39:53;28.20;62.50
36434;DHT22;31691;51.972;5.672;2022-07-05T16:44:55;27.80;65.00
36434;DHT22;31691;51.972;5.672;2022-07-05T16:50:01;28.20;64.20
36434;DHT22;31691;51.972;5.672;2022-07-05T16:55:06;27.60;64.70
36434;DHT22;31691;51.972;5.672;2022-07-05T17:00:09;27.30;68.80
36434;DHT22;31691;51.972;5.672;2022-07-05T17:05:11;26.60;70.80
36434;DHT22;31691;51.972;5.672;2022-07-05T17:10:14;26.00;71.90
36434;DHT22;31691;51.972;5.672;2022-07-05T17:15:16;25.90;71.80
36434;DHT22;31691;51.972;5.672;2022-07-05T17:20:19;26.20;71.20
36434;DHT22;31691;51.972;5.672;2022-07-05T17:25:23;26.20;68.80
36434;DHT22;31691;51.972;5.672;2022-07-05T17:30:25;26.00;68.50
36434;DHT22;31691;51.972;5.672;2022-07-05T17:35:27;25.20;70.10
36434;DHT22;31691;51.972;5.672;2022-07-05T17:40:29;25.30;70.20
36434;DHT22;31691;51.972;5.672;2022-07-05T17:45:31;25.20;71.00
36434;DHT22;31691;51.972;5.672;2022-07-05T17:50:34;24.60;72.30
36434;DHT22;31691;51.972;5.672;2022-07-05T17:55:46;24.50;73.50
36434;DHT22;31691;51.972;5.672;2022-07-05T18:00:48;25.50;71.70
36434;DHT22;31691;51.972;5.672;2022-07-05T18:05:52;25.70;70.40
36434;DHT22;31691;51.972;5.672;2022-07-05T18:10:54;25.30;71.60
36434;DHT22;31691;51.972;5.672;2022-07-05T18:15:56;25.00;72.40
36434;DHT22;31691;51.972;5.672;2022-07-05T18:20:59;25.20;72.20
36434;DHT22;31691;51.972;5.672;2022-07-05T18:26:02;24.70;72.00
36434;DHT22;31691;51.972;5.672;2022-07-05T18:31:04;24.40;73.20
36434;DHT22;31691;51.972;5.672;2022-07-05T18:36:07;24.70;72.90
36434;DHT22;31691;51.972;5.672;2022-07-05T18:41:09;25.30;70.90
36434;DHT22;31691;51.972;5.672;2022-07-05T18:46:11;25.10;69.80
36434;DHT22;31691;51.972;5.672;2022-07-05T18:51:13;25.30;69.70
36434;DHT22;31691;51.972;5.672;2022-07-05T18:56:15;25.70;68.00
36434;DHT22;31691;51.972;5.672;2022-07-05T19:01:23;25.50;66.70
36434;DHT22;31691;51.972;5.672;2022-07-05T19:06:29;24.80;66.60
36434;DHT22;31691;51.972;5.672;2022-07-05T19:11:51;24.40;67.40
36434;DHT22;31691;51.972;5.672;2022-07-05T19:17:13;24.20;68.20
36434;DHT22;31691;51.972;5.672;2022-07-05T19:22:16;24.00;69.50
36434;DHT22;31691;51.972;5.672;2022-07-05T19:27:18;24.00;70.20
36434;DHT22;31691;51.972;5.672;2022-07-05T19:32:20;23.70;71.50
36434;DHT22;31691;51.972;5.672;2022-07-05T19:37:23;23.40;72.00
36434;DHT22;31691;51.972;5.672;2022-07-05T19:42:25;23.30;72.40
36434;DHT22;31691;51.972;5.672;2022-07-05T19:47:28;23.10;73.10
36434;DHT22;31691;51.972;5.672;2022-07-05T19:52:30;22.90;73.40
36434;DHT22;31691;51.972;5.672;2022-07-05T19:57:33;22.80;73.50
36434;DHT22;31691;51.972;5.672;2022-07-05T20:02:35;22.70;73.70
36434;DHT22;31691;51.972;5.672;2022-07-05T20:07:38;22.10;74.70
36434;DHT22;31691;51.972;5.672;2022-07-05T20:12:40;22.00;75.50
36434;DHT22;31691;51.972;5.672;2022-07-05T20:17:42;21.80;76.20
36434;DHT22;31691;51.972;5.672;2022-07-05T20:22:45;21.80;76.10
36434;DHT22;31691;51.972;5.672;2022-07-05T20:27:48;21.70;76.70
36434;DHT22;31691;51.972;5.672;2022-07-05T20:32:50;21.70;76.50
36434;DHT22;31691;51.972;5.672;2022-07-05T20:37:52;21.80;76.60
36434;DHT22;31691;51.972;5.672;2022-07-05T20:42:54;21.80;76.10
36434;DHT22;31691;51.972;5.672;2022-07-05T20:47:57;21.90;76.00
36434;DHT22;31691;51.972;5.672;2022-07-05T20:52:59;21.80;76.20
36434;DHT22;31691;51.972;5.672;2022-07-05T20:58:01;21.90;76.50
36434;DHT22;31691;51.972;5.672;2022-07-05T21:03:04;21.80;76.40
36434;DHT22;31691;51.972;5.672;2022-07-05T21:08:06;21.80;76.50
36434;DHT22;31691;51.972;5.672;2022-07-05T21:13:09;21.80;76.10
36434;DHT22;31691;51.972;5.672;2022-07-05T21:18:12;21.70;76.20
36434;DHT22;31691;51.972;5.672;2022-07-05T21:23:14;21.70;76.30
36434;DHT22;31691;51.972;5.672;2022-07-05T21:28:16;21.60;76.10
36434;DHT22;31691;51.972;5.672;2022-07-05T21:33:18;21.50;76.40
36434;DHT22;31691;51.972;5.672;2022-07-05T21:38:28;21.40;77.00
36434;DHT22;31691;51.972;5.672;2022-07-05T21:43:30;21.40;77.00
36434;DHT22;31691;51.972;5.672;2022-07-05T21:48:33;21.30;77.30
36434;DHT22;31691;51.972;5.672;2022-07-05T21:53:35;21.30;77.60
36434;DHT22;31691;51.972;5.672;2022-07-05T21:58:37;21.30;77.60
36434;DHT22;31691;51.972;5.672;2022-07-05T22:03:59;21.30;77.60
36434;DHT22;31691;51.972;5.672;2022-07-05T22:09:22;21.30;78.00
36434;DHT22;31691;51.972;5.672;2022-07-05T22:14:24;21.20;78.20
36434;DHT22;31691;51.972;5.672;2022-07-05T22:19:26;21.10;78.50
36434;DHT22;31691;51.972;5.672;2022-07-05T22:24:29;20.90;79.10
36434;DHT22;31691;51.972;5.672;2022-07-05T22:29:31;20.90;79.10
36434;DHT22;31691;51.972;5.672;2022-07-05T22:34:34;20.80;79.30
36434;DHT22;31691;51.972;5.672;2022-07-05T22:39:36;20.80;79.40
36434;DHT22;31691;51.972;5.672;2022-07-05T22:44:38;20.80;79.60
36434;DHT22;31691;51.972;5.672;2022-07-05T22:49:40;20.70;79.90
36434;DHT22;31691;51.972;5.672;2022-07-05T22:54:43;20.60;80.30
36434;DHT22;31691;51.972;5.672;2022-07-05T22:59:45;20.60;80.70
36434;DHT22;31691;51.972;5.672;2022-07-05T23:04:47;20.40;81.20
36434;DHT22;31691;51.972;5.672;2022-07-05T23:09:49;20.40;81.80
36434;DHT22;31691;51.972;5.672;2022-07-05T23:14:52;20.40;82.00
36434;DHT22;31691;51.972;5.672;2022-07-05T23:19:54;20.40;82.40
36434;DHT22;31691;51.972;5.672;2022-07-05T23:24:56;20.40;82.40
36434;DHT22;31691;51.972;5.672;2022-07-05T23:30:00;20.40;82.00
36434;DHT22;31691;51.972;5.672;2022-07-05T23:35:03;20.30;83.00
36434;DHT22;31691;51.972;5.672;2022-07-05T23:40:06;20.20;83.20
36434;DHT22;31691;51.972;5.672;2022-07-05T23:45:09;20.20;83.80
36434;DHT22;31691;51.972;5.672;2022-07-05T23:50:11;20.10;83.70
36434;DHT22;31691;51.972;5.672;2022-07-05T23:55:14;20.00;84.70
